Terminal Aerodrome Forecast
Issued by NWS Albany, NY

Home | Current Version | Previous Version | Text Only | Print | Product List | Glossary On
Versions: 1 2 3 4 5 6 7 8 9 10 11 12 13 14 15 16 17 18 19 20 21 22 23 24 25 26 27 28 29
000
FTUS41 KALY 092300
TAFALB
TAF
KALB 092335Z 1000/1024 25006KT P6SM VCSH BKN060
     FM100400 VRB03KT P6SM SCT060
     FM100700 VRB02KT 2SM BR BKN005
     FM101100 30006KT P6SM FEW025
     FM101400 30007KT P6SM SCT050=

USA.gov is the U.S. government's official web portal to all federal, state and local government web resources and services.